Harbor Admiral — WDB3860 — position and weather

sailwx.info

Track history (hours):
 
Tides and Currents Weather Stations Pressure Air Temp Water Temp Dewpoint Dewpoint Depression Visibility Wind Speed Wind Dir Waves Ship Positions

Harbor Admiral

Owner: PACIFIC TUGBOAT SERVICE INC, SAN DIEGO, CA. More information available from US FCC via Universal Licensing System and Coast Guard Vessel Documentation Center.

Last reported at 2018-Jun-18 19:49 UTC. Time now 2018-Jun-19 01:03 UTC.
Position N 33°46' W 118°13'.

Type: Towing. MMSI: 366892110.

Date/timePositionNaut miles runAvg speedWind from/ knotsBaromVisibWave heightAir tempDewpointWater temp
2018-Jun-18 19:49N 33°46' W 118°13'0 0.8
2018-Jun-18 19:30N 33°46' W 118°13'2 3.9
2018-Jun-18 19:00N 33°44' W 118°12'2 4.0
2018-Jun-18 18:30N 33°44' W 118°10'2 4.2
2018-Jun-18 18:00N 33°44' W 118°08'1 2.7
2018-Jun-18 17:30N 33°44' W 118°06'1 1.6
2018-Jun-18 17:00N 33°44' W 118°07'3 6.0
2018-Jun-18 16:30N 33°44' W 118°10'2 4.8
2018-Jun-18 16:00N 33°45' W 118°13'1 0.0
2018-Jun-17 05:28N 33°46' W 118°13'  
2018-Jun-11 18:47N 33°46' W 118°13'0 1.0
2018-Jun-11 18:30N 33°47' W 118°13'0 0.3
2018-Jun-11 18:00N 33°46' W 118°13'0 0.5
2018-Jun-11 17:30N 33°46' W 118°13'0 0.1
2018-Jun-11 17:00N 33°46' W 118°13'0 0.0
2018-Jun-11 16:30N 33°46' W 118°13'0 0.0
2018-Jun-11 16:00N 33°46' W 118°13'0 0.0
2018-Jun-11 15:30N 33°46' W 118°13'0 0.0
2018-Jun-11 15:00N 33°46' W 118°13'0 0.0
2018-Jun-11 14:30N 33°46' W 118°13'0 0.1
2018-Jun-11 14:00N 33°46' W 118°13'0 0.0
2018-Jun-09 17:41N 33°46' W 118°13'0 0.3
2018-Jun-09 17:30N 33°46' W 118°13'0 0.1
2018-Jun-09 17:00N 33°46' W 118°13'1 2.0
2018-Jun-09 16:30N 33°45' W 118°13'2 4.0
2018-Jun-09 16:00N 33°44' W 118°11'2 4.4
2018-Jun-09 15:29N 33°44' W 118°08'1 1.3
2018-Jun-09 14:24N 33°45' W 118°08'1 3.0
2018-Jun-09 14:00N 33°44' W 118°08'3 6.2
2018-Jun-09 13:30N 33°44' W 118°11'3 5.3
2018-Jun-09 13:00N 33°46' W 118°13'  
Track history (hours):
 
Tides and Currents Weather Stations Pressure Air Temp Water Temp Dewpoint Dewpoint Depression Visibility Wind Speed Wind Dir Waves Ship Positions

Harbor Admiral

Owner: PACIFIC TUGBOAT SERVICE INC, SAN DIEGO, CA. More information available from US FCC via Universal Licensing System and Coast Guard Vessel Documentation Center.

Last reported at 2018-Jun-18 19:49 UTC. Time now 2018-Jun-19 01:03 UTC.
Position N 33°46' W 118°13'.

Type: Towing. MMSI: 366892110.

Date/timePositionNaut miles runAvg speedWind from/ knotsBaromVisibWave heightAir tempDewpointWater temp
2018-Jun-18 19:49N 33°46' W 118°13'0 0.8
2018-Jun-18 19:30N 33°46' W 118°13'2 3.9
2018-Jun-18 19:00N 33°44' W 118°12'2 4.0
2018-Jun-18 18:30N 33°44' W 118°10'2 4.2
2018-Jun-18 18:00N 33°44' W 118°08'1 2.7
2018-Jun-18 17:30N 33°44' W 118°06'1 1.6
2018-Jun-18 17:00N 33°44' W 118°07'3 6.0
2018-Jun-18 16:30N 33°44' W 118°10'2 4.8
2018-Jun-18 16:00N 33°45' W 118°13'1 0.0
2018-Jun-17 05:28N 33°46' W 118°13'  
2018-Jun-11 18:47N 33°46' W 118°13'0 1.0
2018-Jun-11 18:30N 33°47' W 118°13'0 0.3
2018-Jun-11 18:00N 33°46' W 118°13'0 0.5
2018-Jun-11 17:30N 33°46' W 118°13'0 0.1
2018-Jun-11 17:00N 33°46' W 118°13'0 0.0
2018-Jun-11 16:30N 33°46' W 118°13'0 0.0
2018-Jun-11 16:00N 33°46' W 118°13'0 0.0
2018-Jun-11 15:30N 33°46' W 118°13'0 0.0
2018-Jun-11 15:00N 33°46' W 118°13'0 0.0
2018-Jun-11 14:30N 33°46' W 118°13'0 0.1
2018-Jun-11 14:00N 33°46' W 118°13'0 0.0
2018-Jun-09 17:41N 33°46' W 118°13'0 0.3
2018-Jun-09 17:30N 33°46' W 118°13'0 0.1
2018-Jun-09 17:00N 33°46' W 118°13'1 2.0
2018-Jun-09 16:30N 33°45' W 118°13'2 4.0
2018-Jun-09 16:00N 33°44' W 118°11'2 4.4
2018-Jun-09 15:29N 33°44' W 118°08'1 1.3
2018-Jun-09 14:24N 33°45' W 118°08'1 3.0
2018-Jun-09 14:00N 33°44' W 118°08'3 6.2
2018-Jun-09 13:30N 33°44' W 118°11'3 5.3
2018-Jun-09 13:00N 33°46' W 118°13'  

Dump ship's entire track history